Flying Academy Los Angeles

  • Flying Academy Los Angeles is the flight school authorized by the FAA under Part 141 and Part 61.
  • Flight school is located in Greater Los Angeles Area, at Corona Municipal Airport (KAJO), Corona CA, USA.
  • For international students, Flying Academy wiil provide the documentation needed for obtaining the US flight-training visa (I-20 form).
  • Courses offered: Private Pilot (PPL), Commercial Pilot (CPL), Instrument Rating (IR), Multi Engine (MEP), Flight Instructor (CFI), Time Building.

Flying Academy Miami

  • Flying Academy Miami is the flight school authorized by the FAA under Part 141 and Part 61.
  • Our flight school is located just 13 miles (21 km) southwest of Downtown Miami at Miami Executive Airport (KTMB), Miami FL, USA.
  • Miami Executive Airport with its high volume of traffic will prepare those wanting a professional pilot career.
  • The Florida climate makes it possible to fly year round - you can expect over 360 flying days. This enables all students to quickly collect their flight hours and jump into the seat of an airline or corporate position.

Flight School News

Page 1 of 2  > >>

We're hiring! Flight Instructors - CFI and/or CFII

FAA Flight Instructor positions available: Junior and Senior CFI/CFII

The candidates must share our vision of excellence in instruction and be able to lead our students to successful completion of their flight and theoretical training. Must also be able to adapt to a variety of teaching situations and posses the ability to work effectively with students, colleagues and staff, in a climate that promotes professionalism and safe flying.

Core tasks:

  • Providing flight and/or ground instruction in accordance to Flying Academy and FAA regulations and procedures;
  • Developing course content, preparing schedules, maintaining records, ensuring the course standards, training requirements and objectives are met by each student in each flight course.

Responsibilities:

  • Perform flight/ground instruction in accordance with the FAA approval
  • Ensure all students understand and practice all aspects of safe flying.
  • Accurately maintaining all appropriate records: student training record, student logbook and e-records.
  • Recommend curriculum improvements when appropriate and develop new curriculum as assigned.
  • Attend administrative standardization, in-service training and instructor development meetings as assigned.
  • Other duties as assigned.

continue reading >>

Flying Academy in Colombia - an enriching experience

Expo ColombiaOver a hundred schools and over two thousand students attended the Expo Estudiante 2016, which took place in Bogotá, Colombia last week. Flying Academy was part of this enlightening and colossal event. For us it was an honor to participate for the first time and we feel enriched by such an amazing experience.

Gerardo Arias - our partner in Colombia, Daniel Bustos and Sandy Gonzalez from Flying Academy Miami were providing information, inspiring students to find what they were passionate about and make their chosen careers more than just a job. They shared the joy they feel when flying as Pilots in our Academy and the endless opportunities a pilot has around the world.

continue reading >>

Come and meet our team between the 18th and 21st of October, in Bogotá

Expo Estudiante Nacional, BogotaFlying Academy Miami informs our future students that we will be present in Bogotá, Colombia for the event Expo Estudiante Nacional, that will take place between the 18th and 21st of October, in Corferias, la Carrera. 37 #24-67, pavilion 8, letter "O".

For more information regarding the event and our participation, please check the following link:
http://expoestudiantenacional.co/expositor/flyingacademy/

continue reading >>

news archive

Flying Academy Los Angeles

Corona Municipal Airport
1903 C Aviation Dr., Corona
CA 92880, USA

Phone: +1 (951) 272-3942

Flying Academy Miami

Miami Executive Airport
14569 SW 127th St, Miami
FL 33186, USA

Phone: +1 (305) 255-8753

E-mail: fly@FlyingAcademy.com

Latest weather

Los Angeles

Current temp 9 °C
and perfect conditions for flying

Miami

Current temp 24 °C
and perfect conditions for flying

METAR

KAJO

KAJO 240556Z AUTO 00000KT 10SM CLR 05/01 A3019 RMK AO2 SLP240 6//// T00500006 10194 20028 51005 $

KLAX

KLAX 240553Z 25003KT 10SM CLR 13/07 A3016 RMK AO2 SLP213 T01330072 10161 20133 58005

KMIA

KMIA 240553Z 15017G26KT 10SM FEW023 BKN028 BKN034 24/21 A2998 RMK AO2 PK WND 14026/0540 SLP153 T02390211 10239 20233 58027 $

KTMB

KTMB 240553Z AUTO 15013G26KT 10SM OVC025 24/20 A2998 RMK AO2 PK WND 16027/0502 SLP150 T02390200 10244 20228 58027

Global METAR and TAF search

Enter ICAO airport codes separated by comma or space.